createdAt,value
2023-03-24T00:01:53.850Z,84.24
2023-03-24T00:04:21.877Z,83.96
2023-03-24T00:06:49.426Z,84.03
2023-03-24T00:09:16.960Z,84.12
2023-03-24T00:11:44.417Z,84.33
2023-03-24T00:14:14.428Z,84.68
2023-03-24T00:16:45.598Z,84.59
2023-03-24T00:19:15.683Z,84.28
2023-03-24T00:21:43.283Z,84.69
2023-03-24T00:24:12.860Z,85.01
2023-03-24T00:26:40.858Z,85.45
2023-03-24T00:29:11.908Z,85.40
2023-03-24T00:31:40.281Z,85.51
2023-03-24T00:34:08.871Z,85.53
2023-03-24T00:36:36.706Z,86.00
2023-03-24T00:39:04.982Z,86.01
2023-03-24T00:41:32.159Z,86.24
2023-03-24T00:44:00.051Z,86.43
2023-03-24T00:46:29.957Z,86.32
2023-03-24T00:49:06.385Z,85.97
2023-03-24T00:51:39.248Z,86.22
2023-03-24T00:54:07.878Z,86.54
2023-03-24T00:56:36.120Z,86.85
2023-03-24T00:59:03.541Z,87.49
2023-03-24T01:01:36.657Z,87.87
2023-03-24T01:04:06.279Z,88.57
2023-03-24T01:06:36.705Z,88.72
2023-03-24T01:09:05.689Z,88.92
2023-03-24T01:11:38.658Z,88.72
2023-03-24T01:14:05.867Z,88.59
2023-03-24T01:16:33.861Z,88.70
2023-03-24T01:19:00.666Z,89.17
2023-03-24T01:21:27.789Z,89.10
2023-03-24T01:23:54.728Z,89.22
2023-03-24T01:26:21.464Z,89.85
2023-03-24T01:28:48.323Z,90.31
2023-03-24T01:31:15.187Z,90.82
2023-03-24T01:33:42.265Z,90.33
2023-03-24T01:36:09.716Z,90.61
2023-03-24T01:38:36.878Z,91.02
2023-03-24T01:41:04.927Z,91.94
2023-03-24T01:43:33.281Z,92.54
2023-03-24T01:46:15.626Z,93.30
2023-03-24T01:48:53.451Z,94.03
2023-03-24T01:51:28.096Z,94.41
2023-03-24T01:54:16.247Z,94.77
2023-03-24T01:56:49.167Z,95.31
2023-03-24T01:59:19.797Z,95.26
2023-03-24T02:02:08.250Z,96.27
2023-03-24T02:04:46.865Z,96.76
2023-03-24T02:07:23.725Z,96.91
2023-03-24T02:09:50.652Z,97.48
2023-03-24T02:12:18.252Z,97.42
2023-03-24T02:14:46.538Z,97.20
2023-03-24T02:17:19.252Z,97.38
2023-03-24T02:20:19.904Z,97.92
2023-03-24T02:22:53.867Z,97.59
2023-03-24T02:25:31.547Z,97.67
2023-03-24T02:28:04.404Z,97.42
2023-03-24T02:30:34.123Z,97.77
2023-03-24T02:33:34.559Z,98.69
2023-03-24T02:36:19.738Z,99.14
2023-03-24T02:39:14.502Z,99.61
2023-03-24T02:41:51.581Z,100.00
2023-03-24T02:44:30.534Z,99.94
2023-03-24T02:47:16.289Z,99.77
2023-03-24T02:50:01.573Z,99.89
2023-03-24T02:52:46.841Z,100.00
2023-03-24T02:55:28.380Z,100.00
2023-03-24T02:58:05.604Z,100.00
2023-03-24T03:01:18.342Z,99.61
2023-03-24T03:04:22.422Z,99.64
2023-03-24T03:06:55.352Z,99.53
2023-03-24T03:09:22.941Z,99.67
2023-03-24T03:11:52.119Z,100.00
2023-03-24T03:14:36.154Z,100.00
2023-03-24T03:17:09.418Z,100.00
2023-03-24T03:19:42.815Z,100.00
2023-03-24T03:22:16.849Z,100.00
2023-03-24T03:24:46.878Z,100.00
2023-03-24T03:27:19.127Z,100.00
2023-03-24T03:29:50.369Z,100.00
2023-03-24T03:32:24.925Z,100.00
2023-03-24T03:35:25.651Z,100.00
2023-03-24T03:38:16.478Z,100.00
2023-03-24T03:40:51.066Z,100.00
2023-03-24T03:43:23.228Z,100.00
2023-03-24T03:45:50.205Z,100.00
2023-03-24T03:48:20.077Z,100.00
2023-03-24T03:50:47.640Z,100.00
2023-03-24T03:53:23.623Z,100.00
2023-03-24T03:55:50.519Z,100.00
2023-03-24T03:58:20.352Z,100.00
2023-03-24T04:00:56.012Z,100.00
2023-03-24T04:03:56.202Z,100.00
2023-03-24T04:06:44.372Z,100.00
2023-03-24T04:09:37.438Z,100.00
2023-03-24T04:12:38.582Z,100.00
2023-03-24T04:15:36.860Z,100.00
2023-03-24T04:18:36.266Z,100.00
2023-03-24T04:21:14.195Z,100.00
2023-03-24T04:23:44.806Z,100.00
2023-03-24T04:26:28.228Z,100.00
2023-03-24T04:29:13.330Z,100.00
2023-03-24T04:31:49.515Z,100.00
2023-03-24T04:34:20.931Z,100.00
2023-03-24T04:36:57.516Z,100.00
2023-03-24T04:39:45.140Z,100.00
2023-03-24T04:42:20.146Z,100.00
2023-03-24T04:44:51.712Z,100.00
2023-03-24T04:47:43.351Z,100.00
2023-03-24T04:50:40.919Z,100.00
2023-03-24T04:53:13.374Z,100.00
2023-03-24T04:55:49.600Z,100.00
2023-03-24T04:58:23.020Z,100.00
2023-03-24T05:00:50.753Z,100.00
2023-03-24T05:03:19.071Z,100.00
2023-03-24T05:05:50.066Z,100.00
2023-03-24T05:08:18.034Z,100.00
2023-03-24T05:10:45.705Z,100.00
2023-03-24T05:13:13.189Z,100.00
2023-03-24T05:15:46.168Z,100.00
2023-03-24T05:18:23.203Z,100.00
2023-03-24T05:20:50.528Z,100.00
2023-03-24T05:23:20.541Z,100.00
2023-03-24T05:25:48.788Z,100.00
2023-03-24T05:28:16.895Z,100.00
2023-03-24T05:30:44.051Z,100.00
2023-03-24T05:33:31.284Z,100.00
2023-03-24T05:35:59.147Z,100.00
2023-03-24T05:38:25.855Z,100.00
2023-03-24T05:40:58.640Z,100.00
2023-03-24T05:43:30.410Z,100.00
2023-03-24T05:46:09.409Z,100.00
2023-03-24T05:48:36.259Z,100.00
2023-03-24T05:51:10.736Z,100.00
2023-03-24T05:53:37.636Z,100.00
2023-03-24T05:56:14.045Z,100.00
2023-03-24T05:58:59.119Z,100.00
2023-03-24T06:01:44.700Z,100.00
2023-03-24T06:04:20.908Z,100.00
2023-03-24T06:06:49.936Z,100.00
2023-03-24T06:09:21.897Z,100.00
2023-03-24T06:11:48.732Z,100.00
2023-03-24T06:14:15.538Z,100.00
2023-03-24T06:16:53.594Z,100.00
2023-03-24T06:19:22.709Z,99.78
2023-03-24T06:22:11.756Z,99.04
2023-03-24T06:24:39.692Z,96.96
2023-03-24T06:27:11.228Z,95.60
2023-03-24T06:29:38.707Z,94.76
2023-03-24T06:32:06.158Z,93.57
2023-03-24T06:34:40.583Z,92.08
2023-03-24T06:37:40.272Z,91.35
2023-03-24T06:40:15.365Z,89.93
2023-03-24T06:42:49.866Z,89.17
2023-03-24T06:45:17.025Z,88.91
2023-03-24T06:47:48.712Z,88.30
2023-03-24T06:50:15.588Z,87.29
2023-03-24T06:52:42.429Z,86.48
2023-03-24T06:55:13.930Z,86.53
2023-03-24T06:57:40.675Z,85.03
2023-03-24T07:00:26.906Z,85.16
2023-03-24T07:03:03.793Z,84.58
2023-03-24T07:05:30.641Z,84.81
2023-03-24T07:10:39.848Z,83.31
2023-03-24T07:13:07.228Z,83.07
2023-03-24T07:15:35.682Z,82.80
2023-03-24T07:18:03.653Z,82.50
2023-03-24T07:20:40.901Z,81.76
2023-03-24T07:23:14.113Z,81.26
2023-03-24T07:25:59.570Z,79.88
2023-03-24T07:28:49.861Z,79.12
2023-03-24T07:31:39.732Z,78.18
2023-03-24T07:34:09.688Z,77.48
2023-03-24T07:36:38.677Z,75.95
2023-03-24T07:39:09.608Z,75.62
2023-03-24T07:41:37.063Z,74.59
2023-03-24T07:44:11.381Z,74.46
2023-03-24T07:46:41.326Z,73.84
2023-03-24T07:49:18.994Z,72.89
2023-03-24T07:52:07.003Z,72.41
2023-03-24T07:54:48.123Z,72.21
2023-03-24T07:57:40.616Z,70.42
2023-03-24T08:00:17.875Z,69.34
2023-03-24T08:02:53.666Z,68.70
2023-03-24T08:05:40.683Z,66.81
2023-03-24T08:08:31.801Z,66.77
2023-03-24T08:10:58.546Z,66.17
2023-03-24T08:13:25.758Z,66.20
2023-03-24T08:15:55.576Z,65.31
2023-03-24T08:18:24.403Z,65.51
2023-03-24T08:20:56.009Z,65.28
2023-03-24T08:23:24.175Z,65.24
2023-03-24T08:25:51.277Z,65.12
2023-03-24T08:28:18.055Z,65.19
2023-03-24T08:30:44.940Z,64.91
2023-03-24T08:33:13.452Z,64.98
2023-03-24T08:35:40.922Z,64.95
2023-03-24T08:38:09.192Z,64.63
2023-03-24T08:40:37.217Z,64.15
2023-03-24T08:43:08.485Z,63.90
2023-03-24T08:45:35.801Z,63.97
2023-03-24T08:48:05.715Z,63.23
2023-03-24T08:50:38.587Z,63.28
2023-03-24T08:53:05.363Z,63.21
2023-03-24T08:55:32.574Z,62.81
2023-03-24T08:57:59.844Z,62.04
2023-03-24T09:00:26.576Z,61.13
2023-03-24T09:02:54.730Z,62.02
2023-03-24T09:05:33.201Z,60.94
2023-03-24T09:08:10.800Z,61.06
2023-03-24T09:10:39.688Z,60.94
2023-03-24T09:13:06.434Z,61.42
2023-03-24T09:15:34.711Z,61.59
2023-03-24T09:18:02.073Z,63.60
2023-03-24T09:20:29.008Z,62.30
2023-03-24T09:22:56.180Z,61.56
2023-03-24T09:25:23.874Z,60.98
2023-03-24T09:27:50.517Z,62.13
2023-03-24T09:30:18.282Z,62.74
2023-03-24T09:32:45.697Z,61.96
2023-03-24T09:35:12.877Z,60.64
2023-03-24T09:37:39.742Z,58.95
2023-03-24T09:40:07.902Z,58.27
2023-03-24T09:42:40.808Z,56.98
2023-03-24T09:45:17.746Z,56.44
2023-03-24T09:47:50.004Z,56.79
2023-03-24T09:50:24.775Z,56.29
2023-03-24T09:52:55.421Z,55.34
2023-03-24T09:55:25.689Z,54.97
2023-03-24T09:57:54.050Z,54.66
2023-03-24T10:00:24.192Z,54.62
2023-03-24T10:02:54.245Z,54.17
2023-03-24T10:05:44.547Z,53.91
2023-03-24T10:08:17.614Z,53.06
2023-03-24T10:11:07.927Z,53.38
2023-03-24T10:13:56.005Z,53.03
2023-03-24T10:16:50.918Z,52.76
2023-03-24T10:19:47.754Z,51.35
2023-03-24T10:22:17.515Z,52.05
2023-03-24T10:25:07.113Z,51.80
2023-03-24T10:27:37.843Z,51.62
2023-03-24T10:30:13.643Z,51.40
2023-03-24T10:32:41.569Z,50.97
2023-03-24T10:35:14.275Z,51.10
2023-03-24T10:37:41.255Z,51.15
2023-03-24T10:40:16.637Z,50.45
2023-03-24T10:42:45.556Z,49.78
2023-03-24T10:45:14.522Z,49.50
2023-03-24T10:47:42.804Z,49.20
2023-03-24T10:50:13.006Z,49.07
2023-03-24T10:52:48.894Z,48.87
2023-03-24T10:55:19.307Z,48.55
2023-03-24T10:58:10.739Z,47.96
2023-03-24T11:00:40.024Z,47.80
2023-03-24T11:03:12.707Z,48.10
2023-03-24T11:05:41.434Z,47.40
2023-03-24T11:08:17.535Z,47.28
2023-03-24T11:10:44.929Z,47.75
2023-03-24T11:13:38.069Z,47.86
2023-03-24T11:16:16.463Z,48.45
2023-03-24T11:19:19.259Z,48.36
2023-03-24T11:21:49.771Z,50.13
2023-03-24T11:24:18.102Z,50.65
2023-03-24T11:27:02.421Z,49.74
2023-03-24T11:29:34.289Z,48.99
2023-03-24T11:32:03.516Z,48.21
2023-03-24T11:34:34.481Z,48.80
2023-03-24T11:37:08.349Z,47.96
2023-03-24T11:39:35.435Z,48.68
2023-03-24T11:42:10.368Z,47.84
2023-03-24T11:44:50.664Z,48.35
2023-03-24T11:47:27.950Z,48.83
2023-03-24T11:50:18.196Z,48.47
2023-03-24T11:52:58.866Z,48.14
2023-03-24T11:55:38.734Z,47.59
2023-03-24T11:58:19.425Z,47.44
2023-03-24T12:00:57.337Z,47.23
2023-03-24T12:03:47.707Z,46.92
2023-03-24T12:06:50.115Z,46.79
2023-03-24T12:09:16.843Z,46.40
2023-03-24T12:11:52.393Z,46.29
2023-03-24T12:14:36.998Z,46.76
2023-03-24T12:17:24.059Z,47.22
2023-03-24T12:20:29.376Z,49.10
2023-03-24T12:23:13.790Z,48.23
2023-03-24T12:26:10.369Z,47.99
2023-03-24T12:28:58.615Z,47.59
2023-03-24T12:31:47.464Z,47.27
2023-03-24T12:34:39.824Z,46.76
2023-03-24T12:37:28.024Z,46.33
2023-03-24T12:40:23.180Z,46.57
2023-03-24T12:43:02.617Z,46.25
2023-03-24T12:45:44.905Z,47.65
2023-03-24T12:48:28.916Z,47.48
2023-03-24T12:51:11.700Z,46.92
2023-03-24T12:54:21.042Z,46.76
2023-03-24T12:56:55.300Z,47.67
2023-03-24T12:59:25.044Z,47.87
2023-03-24T13:01:55.517Z,47.31
2023-03-24T13:04:26.712Z,48.13
2023-03-24T13:07:02.235Z,47.83
2023-03-24T13:09:53.355Z,49.34
2023-03-24T13:12:23.633Z,49.01
2023-03-24T13:15:09.186Z,47.50
2023-03-24T13:18:09.706Z,47.51
2023-03-24T13:20:46.360Z,46.12
2023-03-24T13:23:31.478Z,46.85
2023-03-24T13:26:16.876Z,46.93
2023-03-24T13:28:55.886Z,49.38
2023-03-24T13:31:24.359Z,48.36
2023-03-24T13:33:52.593Z,47.79
2023-03-24T13:36:47.353Z,47.52
2023-03-24T13:39:21.672Z,48.17
2023-03-24T13:41:51.265Z,48.56
2023-03-24T13:44:20.955Z,48.44
2023-03-24T13:47:02.964Z,47.95
2023-03-24T13:49:30.906Z,48.29
2023-03-24T13:51:57.741Z,49.45
2023-03-24T13:54:27.506Z,49.85
2023-03-24T13:56:54.169Z,49.77
2023-03-24T14:00:02.068Z,48.83
2023-03-24T14:02:31.401Z,48.55
2023-03-24T14:05:09.818Z,48.46
2023-03-24T14:07:39.257Z,48.60
2023-03-24T14:10:49.309Z,49.04
2023-03-24T14:13:16.315Z,49.60
2023-03-24T14:15:51.489Z,48.75
2023-03-24T14:18:24.945Z,49.75
2023-03-24T14:20:58.340Z,50.04
2023-03-24T14:23:40.228Z,50.25
2023-03-24T14:26:14.831Z,49.48
2023-03-24T14:28:50.378Z,49.11
2023-03-24T14:31:29.248Z,49.11
2023-03-24T14:34:03.094Z,48.86
2023-03-24T14:36:33.069Z,49.29
2023-03-24T14:39:27.236Z,50.33
2023-03-24T14:41:54.243Z,50.26
2023-03-24T14:44:49.597Z,50.71
2023-03-24T14:47:17.612Z,50.72
2023-03-24T14:49:45.258Z,51.32
2023-03-24T14:52:34.957Z,50.98
2023-03-24T14:55:06.022Z,51.77
2023-03-24T14:57:39.264Z,52.25
2023-03-24T15:00:21.566Z,53.16
2023-03-24T15:03:11.434Z,52.88
2023-03-24T15:05:38.982Z,53.69
2023-03-24T15:08:22.513Z,54.40
2023-03-24T15:10:55.608Z,55.86
2023-03-24T15:13:33.364Z,55.95
2023-03-24T15:16:01.648Z,56.27
2023-03-24T15:18:28.455Z,56.79
2023-03-24T15:20:55.581Z,57.40
2023-03-24T15:23:28.387Z,58.02
2023-03-24T15:25:56.265Z,57.51
2023-03-24T15:28:30.519Z,57.61
2023-03-24T15:31:01.620Z,59.18
2023-03-24T15:33:31.339Z,59.67
2023-03-24T15:35:59.721Z,60.82
2023-03-24T15:38:33.890Z,62.17
2023-03-24T15:41:01.926Z,62.73
2023-03-24T15:43:34.344Z,63.39
2023-03-24T15:49:21.573Z,65.37
2023-03-24T16:04:27.452Z,72.53
2023-03-24T16:26:23.847Z,93.41
2023-03-24T16:38:00.130Z,100.00
2023-03-24T16:41:28.072Z,100.00
2023-03-24T16:53:19.326Z,100.00
2023-03-24T16:56:12.835Z,100.00
2023-03-24T16:58:56.419Z,100.00
2023-03-24T17:01:46.608Z,100.00
2023-03-24T17:04:25.015Z,100.00
2023-03-24T17:12:52.598Z,100.00
2023-03-24T17:15:31.972Z,100.00
2023-03-24T17:27:03.855Z,100.00
2023-03-24T19:28:11.255Z,100.00
2023-03-24T19:56:26.154Z,100.00
2023-03-24T20:03:32.269Z,100.00
2023-03-24T20:14:33.119Z,100.00
2023-03-24T20:17:23.427Z,100.00
2023-03-24T20:20:07.570Z,100.00
2023-03-24T20:22:53.144Z,100.00
2023-03-24T20:25:31.706Z,100.00
2023-03-24T20:28:04.247Z,100.00
2023-03-24T20:38:39.207Z,100.00
2023-03-24T20:59:47.938Z,100.00
2023-03-24T21:54:08.865Z,100.00
2023-03-24T22:00:30.586Z,100.00
2023-03-24T22:02:58.630Z,100.00
2023-03-24T22:05:29.368Z,100.00
2023-03-24T22:07:57.147Z,100.00
2023-03-24T22:10:23.820Z,100.00
2023-03-24T22:12:52.383Z,100.00
2023-03-24T22:15:19.882Z,100.00
2023-03-24T22:17:48.491Z,100.00
2023-03-24T22:20:15.623Z,100.00
2023-03-24T22:22:43.354Z,100.00
2023-03-24T22:25:12.405Z,100.00
2023-03-24T22:27:39.246Z,100.00
2023-03-24T22:30:09.225Z,100.00
2023-03-24T22:32:36.596Z,100.00
2023-03-24T22:35:03.976Z,100.00
2023-03-24T22:37:31.481Z,100.00
2023-03-24T22:39:58.165Z,100.00
2023-03-24T22:42:24.854Z,100.00
2023-03-24T22:44:51.451Z,100.00
2023-03-24T22:47:18.106Z,100.00
2023-03-24T22:49:44.790Z,100.00
2023-03-24T22:52:11.464Z,100.00
2023-03-24T22:54:39.003Z,100.00
2023-03-24T22:57:05.801Z,100.00
2023-03-24T22:59:33.315Z,100.00
2023-03-24T23:02:09.489Z,100.00
2023-03-24T23:04:42.094Z,100.00
2023-03-24T23:07:10.271Z,100.00
2023-03-24T23:09:37.210Z,100.00
2023-03-24T23:12:04.593Z,100.00
2023-03-24T23:14:32.879Z,100.00
2023-03-24T23:16:59.612Z,100.00
2023-03-24T23:19:29.333Z,100.00
2023-03-24T23:21:56.612Z,100.00
2023-03-24T23:24:23.300Z,100.00
2023-03-24T23:26:50.059Z,100.00
2023-03-24T23:29:17.250Z,100.00
2023-03-24T23:31:43.976Z,100.00
2023-03-24T23:34:11.449Z,100.00
2023-03-24T23:36:39.817Z,100.00
2023-03-24T23:39:06.782Z,100.00
2023-03-24T23:41:33.428Z,100.00
2023-03-24T23:44:00.425Z,100.00
2023-03-24T23:46:27.488Z,100.00
2023-03-24T23:48:57.043Z,100.00
2023-03-24T23:51:24.044Z,100.00
2023-03-24T23:53:51.059Z,100.00
2023-03-24T23:56:21.600Z,100.00
2023-03-24T23:58:53.424Z,100.00
